createdAt,value
2017-09-24T00:01:16.603Z,75.20
2017-09-24T00:03:44.849Z,77.90
2017-09-24T00:06:12.257Z,73.97
2017-09-24T00:08:39.678Z,74.03
2017-09-24T00:11:07.107Z,74.03
2017-09-24T00:13:34.508Z,74.90
2017-09-24T00:16:01.942Z,75.70
2017-09-24T00:18:29.344Z,75.67
2017-09-24T00:20:56.787Z,78.77
2017-09-24T00:23:24.198Z,77.30
2017-09-24T00:25:51.649Z,79.77
2017-09-24T00:28:19.068Z,79.60
2017-09-24T00:30:46.509Z,79.30
2017-09-24T00:33:14.240Z,77.50
2017-09-24T00:35:41.651Z,77.10
2017-09-24T00:38:09.093Z,82.23
2017-09-24T00:40:36.516Z,81.20
2017-09-24T00:43:03.950Z,83.43
2017-09-24T00:45:31.387Z,83.47
2017-09-24T00:47:58.756Z,82.27
2017-09-24T00:50:26.193Z,82.78
2017-09-24T00:52:53.629Z,81.87
2017-09-24T00:55:21.057Z,82.90
2017-09-24T00:57:48.430Z,82.07
2017-09-24T01:00:15.857Z,83.53
2017-09-24T01:02:43.270Z,81.17
2017-09-24T01:05:10.669Z,81.40
2017-09-24T01:07:38.112Z,79.83
2017-09-24T01:10:05.542Z,85.03
2017-09-24T01:12:32.983Z,79.50
2017-09-24T01:15:00.434Z,83.97
2017-09-24T01:17:27.871Z,81.87
2017-09-24T01:19:55.289Z,79.90
2017-09-24T01:22:22.821Z,82.00
2017-09-24T01:24:50.281Z,80.73
2017-09-24T01:27:17.656Z,78.60
2017-09-24T01:29:45.085Z,75.57
2017-09-24T01:32:12.517Z,81.00
2017-09-24T01:34:39.939Z,80.80
2017-09-24T01:37:07.344Z,79.03
2017-09-24T01:39:34.756Z,75.23
2017-09-24T01:42:02.201Z,82.43
2017-09-24T01:44:29.744Z,83.10
2017-09-24T01:46:57.172Z,82.90
2017-09-24T01:52:06.038Z,87.17
2017-09-24T01:54:33.430Z,83.53
2017-09-24T01:57:00.845Z,83.33
2017-09-24T01:59:28.259Z,81.50
2017-09-24T02:01:55.673Z,82.77
2017-09-24T02:04:23.076Z,85.70
2017-09-24T02:06:50.495Z,84.30
2017-09-24T02:09:17.909Z,81.57
2017-09-24T02:11:45.363Z,84.40
2017-09-24T02:14:12.757Z,86.87
2017-09-24T02:16:40.177Z,88.00
2017-09-24T02:19:07.612Z,85.50
2017-09-24T02:21:35.007Z,83.07
2017-09-24T02:24:02.441Z,88.57
2017-09-24T02:26:29.838Z,86.70
2017-09-24T02:28:57.246Z,90.73
2017-09-24T02:31:24.673Z,91.40
2017-09-24T02:33:52.088Z,88.03
2017-09-24T02:36:19.511Z,89.03
2017-09-24T02:38:46.937Z,88.07
2017-09-24T02:41:14.350Z,91.70
2017-09-24T02:43:41.761Z,87.10
2017-09-24T02:46:09.169Z,91.60
2017-09-24T02:48:36.570Z,87.20
2017-09-24T02:51:03.997Z,91.95
2017-09-24T02:53:31.438Z,89.43
2017-09-24T02:55:58.864Z,87.40
2017-09-24T02:58:26.290Z,85.50
2017-09-24T03:00:53.713Z,87.20
2017-09-24T03:03:21.121Z,86.37
2017-09-24T03:05:49.221Z,88.57
2017-09-24T03:08:16.619Z,88.17
2017-09-24T03:10:44.039Z,82.80
2017-09-24T03:13:11.455Z,89.47
2017-09-24T03:15:38.881Z,87.27
2017-09-24T03:18:06.292Z,87.65
2017-09-24T03:20:33.719Z,82.17
2017-09-24T03:23:01.130Z,89.07
2017-09-24T03:25:28.529Z,85.23
2017-09-24T03:27:55.956Z,90.80
2017-09-24T03:30:23.359Z,87.50
2017-09-24T03:32:50.821Z,88.73
2017-09-24T03:35:18.218Z,91.30
2017-09-24T03:37:45.654Z,92.33
2017-09-24T03:40:13.059Z,90.33
2017-09-24T03:42:40.456Z,95.70
2017-09-24T03:45:07.903Z,92.83
2017-09-24T03:47:35.321Z,94.50
2017-09-24T03:50:02.738Z,94.50
2017-09-24T03:52:30.145Z,88.70
2017-09-24T03:54:57.916Z,95.10
2017-09-24T03:57:25.339Z,93.80
2017-09-24T03:59:52.760Z,92.30
2017-09-24T04:02:20.152Z,92.27
2017-09-24T04:04:47.593Z,94.47
2017-09-24T04:07:15.005Z,92.33
2017-09-24T04:09:42.422Z,93.57
2017-09-24T04:12:09.847Z,91.90
2017-09-24T04:14:37.257Z,90.70
2017-09-24T04:17:04.682Z,92.43
2017-09-24T04:19:32.086Z,89.07
2017-09-24T04:21:59.503Z,94.80
2017-09-24T04:24:26.926Z,95.67
2017-09-24T04:26:54.321Z,93.63
2017-09-24T04:29:21.747Z,90.50
2017-09-24T04:31:49.176Z,96.13
2017-09-24T04:34:16.600Z,88.17
2017-09-24T04:36:44.092Z,89.80
2017-09-24T04:39:11.498Z,91.33
2017-09-24T04:41:38.947Z,95.30
2017-09-24T04:44:06.358Z,95.93
2017-09-24T04:46:33.758Z,96.90
2017-09-24T04:49:01.173Z,97.80
2017-09-24T04:51:28.582Z,93.63
2017-09-24T04:53:56.018Z,97.15
2017-09-24T04:56:23.437Z,96.70
2017-09-24T04:58:50.850Z,99.90
2017-09-24T05:01:18.269Z,97.63
2017-09-24T05:03:45.902Z,100.73
2017-09-24T05:06:13.324Z,100.40
2017-09-24T05:08:40.727Z,97.23
2017-09-24T05:11:08.154Z,95.47
2017-09-24T05:13:35.568Z,100.80
2017-09-24T05:16:03.002Z,99.37
2017-09-24T05:18:30.437Z,104.17
2017-09-24T05:20:57.854Z,101.27
2017-09-24T05:23:25.286Z,102.00
2017-09-24T05:25:52.719Z,104.93
2017-09-24T05:28:20.350Z,105.90
2017-09-24T05:30:47.777Z,96.10
2017-09-24T05:33:15.186Z,104.17
2017-09-24T05:35:42.595Z,100.60
2017-09-24T05:38:10.021Z,97.17
2017-09-24T05:40:37.434Z,97.30
2017-09-24T05:43:04.836Z,99.07
2017-09-24T05:45:32.354Z,97.87
2017-09-24T05:47:59.771Z,91.63
2017-09-24T05:50:27.781Z,96.10
2017-09-24T05:52:55.213Z,93.97
2017-09-24T05:55:22.646Z,97.87
2017-09-24T05:57:50.068Z,97.10
2017-09-24T06:00:17.528Z,93.47
2017-09-24T06:02:44.940Z,90.27
2017-09-24T06:05:12.345Z,95.20
2017-09-24T06:07:39.785Z,88.03
2017-09-24T06:10:07.210Z,92.10
2017-09-24T06:12:34.628Z,89.77
2017-09-24T06:15:02.020Z,87.60
2017-09-24T06:17:29.449Z,84.10
2017-09-24T06:19:56.865Z,86.53
2017-09-24T06:22:24.298Z,83.27
2017-09-24T06:24:51.724Z,80.03
2017-09-24T06:27:19.149Z,83.77
2017-09-24T06:29:46.580Z,79.37
2017-09-24T06:32:13.995Z,84.50
2017-09-24T06:34:41.450Z,76.37
2017-09-24T06:37:08.857Z,80.97
2017-09-24T06:39:36.297Z,80.30
2017-09-24T06:42:03.697Z,78.80
2017-09-24T06:44:31.105Z,75.80
2017-09-24T06:46:58.529Z,78.50
2017-09-24T06:49:25.941Z,77.07
2017-09-24T06:51:53.361Z,76.20
2017-09-24T06:54:20.812Z,77.80
2017-09-24T06:56:48.220Z,72.13
2017-09-24T06:59:15.641Z,68.33
2017-09-24T07:01:43.088Z,70.43
2017-09-24T07:04:10.593Z,65.97
2017-09-24T07:06:38.000Z,68.90
2017-09-24T07:09:05.397Z,68.30
2017-09-24T07:11:32.810Z,67.80
2017-09-24T07:14:00.269Z,69.33
2017-09-24T07:16:27.690Z,70.37
2017-09-24T07:18:55.098Z,68.23
2017-09-24T07:21:22.524Z,68.50
2017-09-24T07:23:49.965Z,73.17
2017-09-24T07:26:17.414Z,65.83
2017-09-24T07:28:44.832Z,66.07
2017-09-24T07:31:12.269Z,63.60
2017-09-24T07:33:39.677Z,67.10
2017-09-24T07:36:07.085Z,65.80
2017-09-24T07:38:34.510Z,65.90
2017-09-24T07:41:02.002Z,67.47
2017-09-24T07:43:29.416Z,62.90
2017-09-24T07:45:56.815Z,68.03
2017-09-24T07:48:24.270Z,64.87
2017-09-24T07:50:51.693Z,65.67
2017-09-24T07:53:19.087Z,63.03
2017-09-24T07:55:46.520Z,64.97
2017-09-24T07:58:13.912Z,65.27
2017-09-24T08:00:41.368Z,62.67
2017-09-24T08:03:08.792Z,64.10
2017-09-24T08:05:36.195Z,61.60
2017-09-24T08:08:03.616Z,59.70
2017-09-24T08:10:31.032Z,59.17
2017-09-24T08:12:58.483Z,55.87
2017-09-24T08:15:25.861Z,58.07
2017-09-24T08:17:53.286Z,56.63
2017-09-24T08:20:20.693Z,57.90
2017-09-24T08:22:48.123Z,52.60
2017-09-24T08:25:15.522Z,52.30
2017-09-24T08:27:42.938Z,53.27
2017-09-24T08:30:10.332Z,54.10
2017-09-24T08:32:37.771Z,52.67
2017-09-24T08:35:05.226Z,53.30
2017-09-24T08:37:32.637Z,55.70
2017-09-24T08:40:00.069Z,52.67
2017-09-24T08:42:27.471Z,54.00
2017-09-24T08:44:54.898Z,52.10
2017-09-24T08:47:22.312Z,48.93
2017-09-24T08:49:49.739Z,49.95
2017-09-24T08:52:17.134Z,49.13
2017-09-24T08:54:44.565Z,48.57
2017-09-24T08:57:11.977Z,45.73
2017-09-24T08:59:39.381Z,46.57
2017-09-24T09:02:06.822Z,45.60
2017-09-24T09:04:34.255Z,45.97
2017-09-24T09:07:01.695Z,45.00
2017-09-24T09:09:29.093Z,43.57
2017-09-24T09:11:56.506Z,46.13
2017-09-24T09:14:23.939Z,43.07
2017-09-24T09:16:51.376Z,42.90
2017-09-24T09:19:18.815Z,41.53
2017-09-24T09:21:46.239Z,40.63
2017-09-24T09:24:13.756Z,41.77
2017-09-24T09:26:41.181Z,39.13
2017-09-24T09:29:08.607Z,36.50
2017-09-24T09:31:36.056Z,34.80
2017-09-24T09:34:15.124Z,29.73
2017-09-24T09:36:42.571Z,30.10
2017-09-24T09:39:10.010Z,28.20
2017-09-24T09:41:37.444Z,30.77
2017-09-24T09:44:04.850Z,27.73
2017-09-24T09:46:43.870Z,31.00
2017-09-24T09:49:11.319Z,27.90
2017-09-24T09:51:38.771Z,27.60
2017-09-24T09:54:06.164Z,20.37
2017-09-24T09:56:33.625Z,17.77
2017-09-24T09:59:01.029Z,18.57
2017-09-24T10:01:28.428Z,19.33
2017-09-24T10:03:55.917Z,18.70
2017-09-24T10:09:37.115Z,16.87
2017-09-24T10:12:04.573Z,16.70
2017-09-24T10:14:32.346Z,15.83
2017-09-24T10:16:59.744Z,13.90
2017-09-24T10:19:27.174Z,14.27
2017-09-24T10:21:54.711Z,15.80
2017-09-24T10:24:22.118Z,15.27
2017-09-24T10:26:49.554Z,14.53
2017-09-24T10:29:30.859Z,16.20
2017-09-24T10:32:08.738Z,15.50
2017-09-24T10:34:36.216Z,15.20
2017-09-24T10:37:03.673Z,15.27
2017-09-24T10:39:31.093Z,14.03
2017-09-24T10:41:58.524Z,13.95
2017-09-24T10:44:25.949Z,15.00
2017-09-24T10:46:53.345Z,13.27
2017-09-24T10:49:20.783Z,13.13
2017-09-24T10:51:48.193Z,12.97
2017-09-24T10:54:15.606Z,12.82
2017-09-24T10:56:43.013Z,12.67
2017-09-24T10:59:10.455Z,12.20
2017-09-24T11:01:37.856Z,14.60
2017-09-24T11:04:05.270Z,15.87
2017-09-24T11:06:32.707Z,15.32
2017-09-24T11:09:00.115Z,16.60
2017-09-24T11:11:27.539Z,15.83
2017-09-24T11:13:54.943Z,15.40
2017-09-24T11:16:22.369Z,15.60
2017-09-24T11:18:49.797Z,15.57
2017-09-24T11:21:17.225Z,14.00
2017-09-24T11:23:44.650Z,15.33
2017-09-24T11:26:12.112Z,15.10
2017-09-24T11:28:39.530Z,14.00
2017-09-24T11:31:06.957Z,13.20
2017-09-24T11:33:34.401Z,12.90
2017-09-24T11:36:01.827Z,14.87
2017-09-24T11:38:29.245Z,14.40
2017-09-24T11:40:56.685Z,14.50
2017-09-24T11:43:24.128Z,13.90
2017-09-24T11:45:51.541Z,15.90
2017-09-24T11:48:18.940Z,15.50
2017-09-24T11:50:46.379Z,14.67
2017-09-24T11:53:13.784Z,13.90
2017-09-24T11:55:41.205Z,14.47
2017-09-24T11:58:08.633Z,13.50
2017-09-24T12:00:36.039Z,12.20
2017-09-24T12:03:03.502Z,15.57
2017-09-24T12:05:30.913Z,16.33
2017-09-24T12:07:58.351Z,19.13
2017-09-24T12:10:25.780Z,21.10
2017-09-24T12:12:53.182Z,20.77
2017-09-24T12:15:20.673Z,20.07
2017-09-24T12:17:48.086Z,19.90
2017-09-24T12:20:15.505Z,24.87
2017-09-24T12:22:42.904Z,27.50
2017-09-24T12:25:10.374Z,29.73
2017-09-24T12:27:37.771Z,30.47
2017-09-24T12:30:05.182Z,28.13
2017-09-24T12:32:32.639Z,30.77
2017-09-24T12:35:00.044Z,29.17
2017-09-24T12:37:27.471Z,31.53
2017-09-24T12:39:54.865Z,28.87
2017-09-24T12:42:22.309Z,25.27
2017-09-24T12:44:49.906Z,24.40
2017-09-24T12:47:18.160Z,25.00
2017-09-24T12:49:45.627Z,25.60
2017-09-24T12:52:13.045Z,23.70
2017-09-24T12:54:40.491Z,23.83
2017-09-24T12:57:07.936Z,23.13
2017-09-24T12:59:35.375Z,22.80
2017-09-24T13:02:02.770Z,22.13
2017-09-24T13:04:30.169Z,20.43
2017-09-24T13:06:57.608Z,19.83
2017-09-24T13:09:25.178Z,21.43
2017-09-24T13:11:52.624Z,19.43
2017-09-24T13:14:20.038Z,20.30
2017-09-24T13:16:47.448Z,19.60
2017-09-24T13:19:14.853Z,19.90
2017-09-24T13:21:42.298Z,21.43
2017-09-24T13:24:09.713Z,18.70
2017-09-24T13:26:37.175Z,19.70
2017-09-24T13:29:04.712Z,19.30
2017-09-24T13:31:32.128Z,18.30
2017-09-24T13:33:59.549Z,18.90
2017-09-24T13:36:26.960Z,17.02
2017-09-24T13:38:54.365Z,15.40
2017-09-24T13:41:21.814Z,18.13
2017-09-24T13:43:49.231Z,21.33
2017-09-24T13:46:16.640Z,19.40
2017-09-24T13:48:44.054Z,18.90
2017-09-24T13:51:11.539Z,20.10
2017-09-24T13:53:38.977Z,19.20
2017-09-24T13:56:06.423Z,18.40
2017-09-24T13:58:33.961Z,17.57
2017-09-24T14:01:01.387Z,17.50
2017-09-24T14:03:28.809Z,17.30
2017-09-24T14:05:56.230Z,18.83
2017-09-24T14:08:24.307Z,18.85
2017-09-24T14:10:51.747Z,19.30
2017-09-24T14:13:19.194Z,19.03
2017-09-24T14:15:46.654Z,21.80
2017-09-24T14:18:14.093Z,19.13
2017-09-24T14:20:41.524Z,20.60
2017-09-24T14:23:09.015Z,21.23
2017-09-24T14:25:36.426Z,19.20
2017-09-24T14:28:04.001Z,21.60
2017-09-24T14:30:31.726Z,20.00
2017-09-24T14:32:59.263Z,19.77
2017-09-24T14:35:26.678Z,19.27
2017-09-24T14:37:54.133Z,18.53
2017-09-24T14:40:21.681Z,19.10
2017-09-24T14:42:50.716Z,18.13
2017-09-24T14:45:18.163Z,17.13
2017-09-24T14:47:45.568Z,16.43
2017-09-24T14:50:12.963Z,17.00
2017-09-24T14:52:40.393Z,16.70
2017-09-24T14:55:07.845Z,17.97
2017-09-24T14:57:35.283Z,16.17
2017-09-24T15:00:02.705Z,16.40
2017-09-24T15:02:30.200Z,17.70
2017-09-24T15:04:57.624Z,16.13
2017-09-24T15:07:25.076Z,18.30
2017-09-24T15:09:52.493Z,17.10
2017-09-24T15:12:19.924Z,17.00
2017-09-24T15:14:47.346Z,16.57
2017-09-24T15:17:14.789Z,17.40
2017-09-24T15:19:42.178Z,17.43
2017-09-24T15:22:09.633Z,16.57
2017-09-24T15:24:37.123Z,17.13
2017-09-24T15:27:04.554Z,15.37
2017-09-24T15:29:31.983Z,14.87
2017-09-24T15:31:59.427Z,14.30
2017-09-24T15:34:29.291Z,14.30
2017-09-24T15:36:56.894Z,14.27
2017-09-24T15:39:24.329Z,13.63
2017-09-24T15:41:51.743Z,14.37
2017-09-24T15:44:19.178Z,14.00
2017-09-24T15:46:46.607Z,13.10
2017-09-24T15:49:14.034Z,12.57
2017-09-24T15:51:41.452Z,12.40
2017-09-24T15:54:08.883Z,11.70
2017-09-24T15:56:36.287Z,11.07
2017-09-24T15:59:03.717Z,11.20
2017-09-24T16:01:31.127Z,11.73
2017-09-24T16:03:58.548Z,11.03
2017-09-24T16:06:25.987Z,13.00
2017-09-24T16:08:53.390Z,12.67
2017-09-24T16:11:20.834Z,12.63
2017-09-24T16:13:48.261Z,12.53
2017-09-24T16:16:15.692Z,12.80
2017-09-24T16:18:43.128Z,13.23
2017-09-24T16:21:10.526Z,13.20
2017-09-24T16:23:37.930Z,12.33
2017-09-24T16:26:05.390Z,13.17
2017-09-24T16:28:32.796Z,12.23
2017-09-24T16:31:00.206Z,14.20
2017-09-24T16:33:27.656Z,13.43
2017-09-24T16:35:55.123Z,14.00
2017-09-24T16:38:22.542Z,14.90
2017-09-24T16:40:49.956Z,18.40
2017-09-24T16:43:17.413Z,17.07
2017-09-24T16:45:44.803Z,18.40
2017-09-24T16:48:12.242Z,18.03
2017-09-24T16:50:39.689Z,17.37
2017-09-24T16:53:07.105Z,17.97
2017-09-24T16:55:34.546Z,17.37
2017-09-24T16:58:01.945Z,17.10
2017-09-24T17:00:29.577Z,17.60
2017-09-24T17:02:56.997Z,17.00
2017-09-24T17:05:24.422Z,17.30
2017-09-24T17:07:51.836Z,18.87
2017-09-24T17:10:19.281Z,19.33
2017-09-24T17:12:46.660Z,20.20
2017-09-24T17:15:14.104Z,18.20
2017-09-24T17:17:41.549Z,20.60
2017-09-24T17:20:09.027Z,18.43
2017-09-24T17:22:36.440Z,18.83
2017-09-24T17:25:03.862Z,17.47
2017-09-24T17:27:31.273Z,17.63
2017-09-24T17:29:58.683Z,18.17
2017-09-24T17:32:26.435Z,17.10
2017-09-24T17:34:53.884Z,17.40
2017-09-24T17:37:21.282Z,16.63
2017-09-24T17:39:48.742Z,17.33
2017-09-24T17:42:16.491Z,17.30
2017-09-24T17:44:43.892Z,18.17
2017-09-24T17:47:11.362Z,17.30
2017-09-24T17:49:38.774Z,18.03
2017-09-24T17:52:06.189Z,18.20
2017-09-24T17:54:37.074Z,19.07
2017-09-24T17:57:04.527Z,17.63
2017-09-24T17:59:32.279Z,19.43
2017-09-24T18:01:59.750Z,19.10
2017-09-24T18:04:27.207Z,18.87
2017-09-24T18:06:54.622Z,21.40
2017-09-24T18:09:22.060Z,18.73
2017-09-24T18:11:49.527Z,20.53
2017-09-24T18:14:16.948Z,20.80
2017-09-24T18:16:44.360Z,20.90
2017-09-24T18:19:11.795Z,19.87
2017-09-24T18:21:39.203Z,20.70
2017-09-24T18:24:06.738Z,20.33
2017-09-24T18:26:34.183Z,20.27
2017-09-24T18:29:01.590Z,21.60
2017-09-24T18:31:29.047Z,21.60
2017-09-24T18:33:57.767Z,20.10
2017-09-24T18:36:25.893Z,21.30
2017-09-24T18:38:53.374Z,19.80
2017-09-24T18:41:20.830Z,19.67
2017-09-24T18:43:48.339Z,21.63
2017-09-24T18:46:15.797Z,21.13
2017-09-24T18:48:43.231Z,20.83
2017-09-24T18:51:10.695Z,22.13
2017-09-24T18:53:38.115Z,22.00
2017-09-24T18:56:05.567Z,22.47
2017-09-24T18:58:33.008Z,23.07
2017-09-24T19:01:00.412Z,21.50
2017-09-24T19:03:27.854Z,20.80
2017-09-24T19:05:55.530Z,20.27
2017-09-24T19:08:22.967Z,20.40
2017-09-24T19:10:50.390Z,22.20
2017-09-24T19:13:17.859Z,21.17
2017-09-24T19:15:45.325Z,22.37
2017-09-24T19:18:12.862Z,23.47
2017-09-24T19:20:40.513Z,22.60
2017-09-24T19:23:07.953Z,21.87
2017-09-24T19:25:35.428Z,21.60
2017-09-24T19:28:03.485Z,23.80
2017-09-24T19:30:31.183Z,23.30
2017-09-24T19:32:58.675Z,22.37
2017-09-24T19:35:26.172Z,22.10
2017-09-24T19:37:53.695Z,21.35
2017-09-24T19:40:21.222Z,21.93
2017-09-24T19:42:48.639Z,23.00
2017-09-24T19:45:16.222Z,21.57
2017-09-24T19:47:43.721Z,36.83
2017-09-24T19:50:11.152Z,30.70
2017-09-24T19:52:38.581Z,117.45
2017-09-24T19:55:06.035Z,46.30
2017-09-24T19:57:33.533Z,23.30
2017-09-24T20:00:00.952Z,22.40
2017-09-24T20:02:28.358Z,22.83
2017-09-24T20:04:55.768Z,22.30
2017-09-24T20:07:23.222Z,21.57
2017-09-24T20:09:50.661Z,21.30
2017-09-24T20:12:18.093Z,22.50
2017-09-24T20:14:45.531Z,20.90
2017-09-24T20:17:12.958Z,22.70
2017-09-24T20:19:40.416Z,20.40
2017-09-24T20:22:07.818Z,21.13
2017-09-24T20:24:35.252Z,22.07
2017-09-24T20:27:02.672Z,21.05
2017-09-24T20:29:30.114Z,21.70
2017-09-24T20:31:57.542Z,20.57
2017-09-24T20:34:24.968Z,21.53
2017-09-24T20:36:52.408Z,21.50
2017-09-24T20:39:19.859Z,21.30
2017-09-24T20:41:47.273Z,21.50
2017-09-24T20:44:14.682Z,20.48
2017-09-24T20:46:42.102Z,19.87
2017-09-24T20:49:09.629Z,20.80
2017-09-24T20:51:37.036Z,21.20
2017-09-24T20:54:04.446Z,480.67
2017-09-24T20:56:31.889Z,22.10
2017-09-24T20:58:59.328Z,22.40
2017-09-24T21:01:26.718Z,22.60
2017-09-24T21:03:54.161Z,23.30
2017-09-24T21:06:21.559Z,24.80
2017-09-24T21:08:48.994Z,24.60
2017-09-24T21:11:16.401Z,25.63
2017-09-24T21:13:43.844Z,27.08
2017-09-24T21:16:11.254Z,28.23
2017-09-24T21:18:38.682Z,26.97
2017-09-24T21:21:06.106Z,30.43
2017-09-24T21:23:33.547Z,28.77
2017-09-24T21:26:00.968Z,31.00
2017-09-24T21:28:28.385Z,29.43
2017-09-24T21:30:56.053Z,30.25
2017-09-24T21:33:23.452Z,33.20
2017-09-24T21:35:50.885Z,33.80
2017-09-24T21:38:18.274Z,35.43
2017-09-24T21:40:45.692Z,32.83
2017-09-24T21:43:13.097Z,35.00
2017-09-24T21:45:40.545Z,33.90
2017-09-24T21:48:07.946Z,33.07
2017-09-24T21:50:35.346Z,32.80
2017-09-24T21:53:02.774Z,31.60
2017-09-24T21:55:30.164Z,36.70
2017-09-24T21:57:57.599Z,108.73
2017-09-24T22:00:25.017Z,35.50
2017-09-24T22:02:52.461Z,35.33
2017-09-24T22:05:19.861Z,33.90
2017-09-24T22:07:47.304Z,33.45
2017-09-24T22:10:14.752Z,34.30
2017-09-24T22:12:42.159Z,33.83
2017-09-24T22:15:09.550Z,34.30
2017-09-24T22:17:36.999Z,33.23
2017-09-24T22:20:04.385Z,31.70
2017-09-24T22:22:31.825Z,34.07
2017-09-24T22:24:59.223Z,31.30
2017-09-24T22:27:26.693Z,32.77
2017-09-24T22:29:54.085Z,30.60
2017-09-24T22:32:21.496Z,31.80
2017-09-24T22:34:48.913Z,31.37
2017-09-24T22:37:16.301Z,32.60
2017-09-24T22:39:43.733Z,32.80
2017-09-24T22:42:11.145Z,31.08
2017-09-24T22:44:38.566Z,30.53
2017-09-24T22:47:05.958Z,30.63
2017-09-24T22:49:33.389Z,31.03
2017-09-24T22:52:00.821Z,31.90
2017-09-24T22:54:28.241Z,31.67
2017-09-24T22:56:55.662Z,30.03
2017-09-24T22:59:23.070Z,29.43
2017-09-24T23:01:50.500Z,28.60
2017-09-24T23:04:17.909Z,31.73
2017-09-24T23:06:45.330Z,32.27
2017-09-24T23:09:12.757Z,34.67
2017-09-24T23:11:40.177Z,34.10
2017-09-24T23:14:07.584Z,32.10
2017-09-24T23:16:34.997Z,31.97
2017-09-24T23:19:02.399Z,32.70
2017-09-24T23:21:29.806Z,32.77
2017-09-24T23:23:57.240Z,32.87
2017-09-24T23:26:24.652Z,29.93
2017-09-24T23:28:52.040Z,30.90
2017-09-24T23:31:19.458Z,30.33
2017-09-24T23:33:46.885Z,29.17
2017-09-24T23:36:14.323Z,28.97
2017-09-24T23:38:41.738Z,28.80
2017-09-24T23:41:09.150Z,28.80
2017-09-24T23:43:36.561Z,29.60
2017-09-24T23:46:03.990Z,28.83
2017-09-24T23:48:31.405Z,27.33
2017-09-24T23:50:58.815Z,26.73
2017-09-24T23:53:26.809Z,27.55
2017-09-24T23:55:54.753Z,27.17
2017-09-24T23:58:22.156Z,28.70
